Time;durP1;ratioP1;P1;durP2;ratioP2;P2;SDS_P1;SDS_P2;PMS_P1;PMS_P2;Temp;Humidity;BMP_temperature;BMP_pressure;BME280_temperature;BME280_humidity;BME280_pressure;Samples;Min_cycle;Max_cycle;Signal;HPM_P1;HPM_P2
2022/05/16 00:02:22;;;;;;;3.63;1.70;;;17.60;92.00;;;18.05;60.56;100808.56;5214669;28;20112;-84
2022/05/16 00:04:54;;;;;;;1.98;1.35;;;17.60;92.30;;;18.00;60.94;100808.56;5215465;28;20053;-84
2022/05/16 00:07:26;;;;;;;2.22;1.35;;;17.60;92.80;;;17.95;61.13;100815.56;5214482;28;20049;-84
2022/05/16 00:09:58;;;;;;;1.67;1.40;;;17.50;93.10;;;17.90;61.23;100814.66;5211277;28;20049;-84
2022/05/16 00:12:32;;;;;;;2.25;1.48;;;17.50;93.30;;;17.85;61.15;100814.63;5213206;28;20054;-84
2022/05/16 00:15:06;;;;;;;2.45;1.63;;;17.40;93.40;;;17.80;61.33;100810.19;5213054;28;20064;-85
2022/05/16 00:17:38;;;;;;;1.98;1.23;;;17.40;93.70;;;17.76;61.58;100813.69;5212884;28;20053;-85
2022/05/16 00:20:11;;;;;;;1.95;1.33;;;17.40;94.00;;;17.72;61.68;100817.19;5213568;28;20057;-84
2022/05/16 00:22:44;;;;;;;2.38;1.65;;;17.30;94.20;;;17.68;61.86;100810.09;5212473;28;20056;-84
2022/05/16 00:25:16;;;;;;;3.25;1.50;;;17.30;94.50;;;17.63;62.07;100807.44;5212545;28;20055;-85
2022/05/16 00:27:50;;;;;;;1.90;1.33;;;17.20;94.70;;;17.59;62.07;100809.16;5212600;28;20052;-84
2022/05/16 00:30:22;;;;;;;4.05;1.70;;;17.20;94.80;;;17.55;61.98;100804.75;5212220;28;20053;-84
2022/05/16 00:32:55;;;;;;;2.67;1.45;;;17.20;95.20;;;17.51;61.99;100800.31;5211947;28;20511;-85
2022/05/16 00:35:27;;;;;;;1.95;1.65;;;17.10;95.00;;;17.48;62.09;100808.22;5211700;28;20064;-84
2022/05/16 00:37:59;;;;;;;2.83;1.52;;;17.00;95.10;;;17.44;62.33;100798.53;5210860;28;20084;-83
2022/05/16 00:40:31;;;;;;;2.25;1.42;;;17.00;95.40;;;17.41;62.35;100798.53;5211041;28;20045;-84
2022/05/16 00:43:09;;;;;;;2.67;1.73;;;17.00;95.50;;;17.38;62.53;100790.56;5211341;28;20064;-85
2022/05/16 00:45:45;;;;;;;1.83;1.40;;;17.00;95.80;;;17.38;62.65;100792.34;5210780;28;20041;-85
2022/05/16 00:48:17;;;;;;;1.85;1.50;;;16.90;95.90;;;17.34;62.68;100799.31;5210384;28;20049;-85
2022/05/16 00:50:49;;;;;;;2.30;1.45;;;16.90;96.10;;;17.33;62.90;100795.81;5213324;28;20083;-85
2022/05/16 00:53:21;;;;;;;2.38;1.42;;;16.90;96.30;;;17.30;62.94;100798.44;5214917;28;20121;-84
2022/05/16 00:55:53;;;;;;;2.58;1.52;;;16.90;96.40;;;17.27;63.18;100793.13;5214416;28;20455;-85
2022/05/16 00:58:26;;;;;;;2.80;1.60;;;16.90;96.60;;;17.25;63.43;100794.00;5215518;28;20050;-84
2022/05/16 01:00:58;;;;;;;1.98;1.40;;;16.90;96.80;;;17.22;63.54;100799.25;5216018;28;20492;-85
2022/05/16 01:06:20;;;;;;;1.65;1.20;;;16.80;97.00;;;17.17;63.92;100787.78;5217358;28;20057;-84
2022/05/16 01:08:51;;;;;;;2.25;1.63;;;16.80;97.30;;;17.13;63.91;100784.25;5217804;28;20184;-85
2022/05/16 01:11:24;;;;;;;1.85;1.50;;;16.70;97.30;;;17.11;63.99;100788.63;5219216;28;20045;-84
2022/05/16 01:13:57;;;;;;;1.92;1.40;;;16.70;97.50;;;17.07;63.92;100787.69;5219305;28;20075;-84
2022/05/16 01:16:29;;;;;;;2.92;1.50;;;16.70;97.60;;;17.09;64.10;100788.63;5220149;28;20060;-83
2022/05/16 01:19:02;;;;;;;3.30;1.40;;;16.70;97.60;;;17.09;63.98;100783.34;5219780;28;20045;-83
2022/05/16 01:21:39;;;;;;;2.40;1.55;;;16.70;97.60;;;17.12;63.66;100785.13;5217920;28;20096;-83
2022/05/16 01:24:18;;;;;;;2.78;1.40;;;16.70;97.50;;;17.15;63.46;100776.34;5217807;28;20053;-83
2022/05/16 01:26:50;;;;;;;2.17;1.98;;;16.70;97.40;;;17.15;63.13;100781.59;5216808;28;20388;-83
2022/05/16 01:29:22;;;;;;;2.47;1.73;;;16.70;97.20;;;17.16;63.32;100779.00;5220553;28;20057;-83
2022/05/16 01:31:54;;;;;;;1.63;1.42;;;16.80;97.30;;;17.19;63.50;100786.03;5227985;28;20050;-83
2022/05/16 01:34:26;;;;;;;2.50;1.55;;;16.80;97.50;;;17.20;63.58;100782.53;5220061;28;20056;-83
2022/05/16 01:36:57;;;;;;;2.25;1.60;;;16.70;97.50;;;17.18;63.65;100781.66;5219783;28;20053;-82
2022/05/16 01:39:31;;;;;;;2.83;1.60;;;16.70;97.60;;;17.17;63.63;100782.53;5219567;28;20055;-83
2022/05/16 01:42:04;;;;;;;2.70;1.55;;;16.80;97.50;;;17.16;63.75;100784.28;5219010;28;20109;-83
2022/05/16 01:44:36;;;;;;;2.00;1.40;;;16.80;97.60;;;17.14;63.53;100787.75;5219845;28;20053;-82
2022/05/16 01:47:08;;;;;;;1.63;1.42;;;16.70;97.60;;;17.16;63.88;100788.66;5219658;28;20056;-83
2022/05/16 01:49:40;;;;;;;1.55;1.33;;;16.70;97.80;;;17.16;64.10;100784.28;5221980;28;20050;-83
2022/05/16 01:52:12;;;;;;;1.80;1.60;;;16.70;97.90;;;17.13;64.27;100786.00;5229212;28;20045;-82
2022/05/16 01:54:45;;;;;;;1.65;1.55;;;16.70;97.90;;;17.14;63.97;100780.72;5235574;28;20037;-83
2022/05/16 01:57:17;;;;;;;1.90;1.50;;;16.70;97.80;;;17.14;63.66;100772.81;5235278;28;20040;-82
2022/05/16 01:59:49;;;;;;;2.53;1.70;;;16.80;97.70;;;17.15;63.94;100769.34;5232150;28;20045;-83
2022/05/16 02:02:21;;;;;;;1.80;1.38;;;16.80;97.90;;;17.16;63.92;100762.31;5219060;28;20057;-84
2022/05/16 02:04:53;;;;;;;2.15;1.52;;;16.70;97.80;;;17.14;64.06;100764.03;5215436;28;20049;-83
2022/05/16 02:07:25;;;;;;;2.45;1.50;;;16.70;97.90;;;17.13;64.26;100765.81;5214338;28;20495;-84
2022/05/16 02:09:59;;;;;;;2.05;1.20;;;16.70;98.00;;;17.12;64.16;100765.78;5213320;28;20056;-84
2022/05/16 02:12:31;;;;;;;2.50;1.63;;;16.70;98.20;;;17.09;64.58;100764.91;5213244;28;20416;-84
2022/05/16 02:15:04;;;;;;;1.90;1.35;;;16.70;98.30;;;17.09;65.08;100757.00;5213548;28;20556;-84
2022/05/16 02:17:37;;;;;;;1.88;1.67;;;16.70;98.60;;;17.07;64.99;100758.72;5213848;28;20475;-83
2022/05/16 02:20:10;;;;;;;1.83;1.33;;;16.70;98.60;;;17.08;65.17;100754.34;5213511;28;20050;-83
2022/05/16 02:25:36;;;;;;;2.45;1.60;;;16.70;98.70;;;17.10;64.91;100750.00;5213212;28;20083;-84
2022/05/16 02:28:12;;;;;;;2.08;1.65;;;16.70;98.60;;;17.09;64.93;100756.13;5214001;28;20396;-84
2022/05/16 02:30:45;;;;;;;2.75;1.80;;;16.70;98.60;;;17.06;65.05;100754.34;5214246;28;20104;-84
2022/05/16 02:33:18;;;;;;;2.33;1.38;;;16.60;98.60;;;17.05;65.04;100744.69;5214077;28;20053;-84
2022/05/16 02:35:51;;;;;;;2.58;1.40;;;16.70;98.70;;;17.05;64.74;100746.44;5214363;28;20061;-84
2022/05/16 02:38:23;;;;;;;2.28;1.55;;;16.60;98.50;;;17.04;64.59;100749.94;5214276;28;20051;-84
2022/05/16 02:40:57;;;;;;;2.92;1.73;;;16.60;98.40;;;17.04;64.81;100742.03;5214432;28;20506;-84
2022/05/16 02:43:29;;;;;;;2.38;1.65;;;16.60;98.60;;;17.03;64.58;100743.78;5213857;28;20524;-84
2022/05/16 02:46:01;;;;;;;2.15;1.80;;;16.60;98.40;;;17.02;64.60;100739.41;5213534;28;20049;-84
2022/05/16 02:48:33;;;;;;;2.42;1.65;;;16.60;98.40;;;17.02;64.21;100749.06;5214497;28;20063;-84
2022/05/16 02:51:05;;;;;;;3.85;1.80;;;16.60;98.20;;;17.01;64.06;100750.78;5214738;28;20136;-84
2022/05/16 02:53:37;;;;;;;3.13;2.28;;;16.60;98.10;;;16.98;63.77;100750.78;5214846;28;20430;-84
2022/05/16 02:56:10;;;;;;;3.40;1.80;;;16.60;97.90;;;16.94;63.78;100738.44;5215617;28;20057;-84
2022/05/16 02:58:43;;;;;;;2.83;2.10;;;16.60;97.80;;;16.87;64.27;100734.00;5217341;28;20048;-84
2022/05/16 03:01:15;;;;;;;2.88;1.80;;;16.50;98.10;;;16.82;64.92;100735.69;5227353;28;20065;-84
2022/05/16 03:03:47;;;;;;;4.50;2.22;;;16.50;98.40;;;16.76;64.98;100735.69;5212143;28;20060;-84
2022/05/16 03:06:19;;;;;;;3.67;1.98;;;16.40;98.40;;;16.75;65.34;100728.63;5213051;28;20492;-84
2022/05/16 03:08:51;;;;;;;3.95;1.95;;;16.40;98.70;;;16.74;65.02;100734.75;5212165;28;20488;-84
2022/05/16 03:11:25;;;;;;;3.70;2.05;;;16.40;98.60;;;16.72;65.52;100729.50;5213349;28;20067;-84
2022/05/16 03:13:57;;;;;;;3.00;2.13;;;16.30;98.80;;;16.72;65.36;100723.34;5214490;28;20053;-84
2022/05/16 03:16:29;;;;;;;3.80;2.20;;;16.30;98.70;;;16.72;65.74;100723.34;5214089;28;20055;-84
2022/05/16 03:19:01;;;;;;;2.78;1.67;;;16.40;99.00;;;16.69;65.66;100718.91;5215157;28;20475;-84
2022/05/16 03:21:33;;;;;;;1.85;1.58;;;16.30;99.00;;;16.68;65.62;100722.38;5216274;28;20095;-83
2022/05/16 03:24:08;;;;;;;1.98;1.75;;;16.30;98.90;;;16.69;65.67;100723.28;5216367;28;20045;-84
2022/05/16 03:26:41;;;;;;;3.45;2.20;;;16.30;99.00;;;16.64;65.51;100719.75;5215168;28;20053;-84
2022/05/16 03:29:14;;;;;;;3.67;2.30;;;16.30;98.90;;;16.67;65.28;100719.75;5214640;28;20095;-83
2022/05/16 03:31:45;;;;;;;3.03;1.88;;;16.30;98.70;;;16.68;65.12;100706.59;5211716;28;20061;-83
2022/05/16 03:34:18;;;;;;;3.13;2.33;;;16.30;98.60;;;16.70;64.83;100717.19;5212375;28;20422;-83
2022/05/16 03:36:49;;;;;;;3.47;2.03;;;16.30;98.50;;;16.71;64.81;100718.97;5211421;28;20041;-84
2022/05/16 03:42:12;;;;;;;2.80;2.03;;;16.40;98.30;;;16.73;64.26;100709.31;5211111;28;20529;-84
2022/05/16 03:44:45;;;;;;;2.33;2.00;;;16.40;98.20;;;16.76;64.04;100710.25;5259624;23;20046;-72
2022/05/16 03:47:17;;;;;;;3.58;2.33;;;16.40;98.00;;;16.80;63.86;100719.03;5164900;28;20046;-71
2022/05/16 03:49:49;;;;;;;3.95;2.47;;;16.50;97.90;;;16.83;63.70;100716.44;5165622;28;20048;-71
2022/05/16 03:52:21;;;;;;;3.78;2.33;;;16.50;97.80;;;16.84;63.56;100719.94;5165449;28;20046;-71
2022/05/16 03:54:53;;;;;;;3.42;2.10;;;16.50;97.60;;;16.84;63.56;100714.69;5165934;28;20054;-72
2022/05/16 03:57:26;;;;;;;3.15;2.03;;;16.50;97.50;;;16.87;63.54;100705.03;5165820;28;20069;-71
2022/05/16 03:59:59;;;;;;;3.65;2.33;;;16.50;97.40;;;16.88;63.34;100713.81;5165674;28;20506;-71
2022/05/16 04:02:31;;;;;;;3.83;2.50;;;16.60;97.30;;;16.89;63.49;100705.94;5165604;28;20401;-72
2022/05/16 04:05:03;;;;;;;4.32;2.25;;;16.60;97.50;;;16.91;63.59;100703.31;5165233;28;20056;-71
2022/05/16 04:07:36;;;;;;;2.95;2.00;;;16.60;97.50;;;16.94;63.97;100698.94;5165658;28;20466;-71
2022/05/16 04:10:08;;;;;;;3.45;1.92;;;16.60;97.60;;;16.94;63.91;100698.06;5165662;28;20057;-72
2022/05/16 04:12:42;;;;;;;3.30;2.13;;;16.60;97.70;;;16.95;64.23;100695.47;5164251;28;20046;-71
2022/05/16 04:15:14;;;;;;;3.92;2.00;;;16.60;97.80;;;16.98;63.84;100695.47;5165198;28;20057;-71
2022/05/16 04:17:46;;;;;;;3.22;1.73;;;16.60;97.80;;;17.00;63.95;100699.00;5164970;28;20138;-71
2022/05/16 04:20:21;;;;;;;2.50;2.00;;;16.70;97.80;;;17.04;63.78;100706.06;5165108;28;20054;-71
2022/05/16 04:22:53;;;;;;;2.63;1.73;;;16.70;97.60;;;17.11;63.81;100708.72;5165228;28;20050;-71
2022/05/16 04:25:25;;;;;;;3.50;2.10;;;16.70;97.60;;;17.16;64.15;100712.28;5165425;28;20072;-71
2022/05/16 04:27:58;;;;;;;3.78;1.88;;;16.80;97.90;;;17.23;63.77;100706.19;5165269;28;20058;-72
2022/05/16 04:30:30;;;;;;;3.03;1.88;;;16.80;97.70;;;17.33;63.81;100718.53;5165151;28;20315;-71
2022/05/16 04:33:02;;;;;;;2.95;1.95;;;16.90;97.70;;;17.40;64.19;100714.16;5165221;28;20050;-71
2022/05/16 04:35:36;;;;;;;2.05;1.83;;;17.00;97.90;;;17.46;63.61;100698.38;5165131;28;20050;-71
2022/05/16 04:38:09;;;;;;;2.70;1.73;;;17.10;97.60;;;17.54;63.39;100702.84;5165422;28;20050;-72
2022/05/16 04:43:28;;;;;;;3.35;1.90;;;17.20;97.10;;;17.75;61.36;100695.94;5163547;28;20058;-72
2022/05/16 04:46:01;;;;;;;5.53;2.38;;;17.40;96.40;;;17.85;60.50;100690.69;5164499;28;20055;-71
2022/05/16 04:48:33;;;;;;;4.78;2.17;;;17.50;95.80;;;17.97;59.86;100696.88;5164778;28;20505;-71
2022/05/16 04:51:05;;;;;;;4.78;2.50;;;17.60;95.30;;;18.07;59.14;100703.97;5164808;28;20051;-71
2022/05/16 04:53:38;;;;;;;2.83;1.75;;;17.70;94.80;;;18.20;58.74;100695.19;5164708;28;20054;-71
2022/05/16 04:56:11;;;;;;;4.35;2.67;;;17.80;94.40;;;18.31;58.33;100703.13;5164500;28;20050;-71
2022/05/16 04:58:44;;;;;;;2.97;1.80;;;17.90;94.10;;;18.40;57.89;100704.03;5164634;28;20050;-77
2022/05/16 05:01:16;;;;;;;3.00;1.70;;;18.00;94.00;;;18.47;57.52;100698.75;5164508;28;20050;-72
2022/05/16 05:03:48;;;;;;;3.53;2.13;;;18.10;93.40;;;18.50;56.95;100694.34;5164620;28;20497;-72
2022/05/16 05:06:21;;;;;;;4.45;2.40;;;18.20;92.90;;;18.52;56.87;100696.97;5164522;28;20509;-71
2022/05/16 05:08:53;;;;;;;4.32;2.17;;;18.20;92.60;;;18.53;56.83;100690.84;5164363;28;20042;-71
2022/05/16 05:14:34;;;;;;;4.03;1.88;;;18.20;92.40;;;18.63;56.94;100679.41;5164351;28;20068;-71
2022/05/16 05:17:09;;;;;;;3.88;2.70;;;18.30;92.40;;;18.57;56.11;100680.28;5164190;28;20046;-72
2022/05/16 05:19:41;;;;;;;4.20;2.30;;;18.30;91.80;;;18.52;56.31;100682.06;5164248;28;20052;-71
2022/05/16 05:22:13;;;;;;;4.43;1.95;;;18.20;91.70;;;18.53;56.33;100686.44;5163854;28;20060;-71
2022/05/16 05:24:45;;;;;;;4.95;1.98;;;18.20;91.80;;;18.55;56.47;100687.31;5164221;28;20108;-71
2022/05/16 05:27:17;;;;;;;4.45;1.83;;;18.20;91.80;;;18.59;56.60;100699.66;5164381;28;20638;-70
2022/05/16 05:29:52;;;;;;;2.97;1.70;;;18.30;91.90;;;18.58;56.59;100687.34;5164616;28;20046;-71
2022/05/16 05:32:24;;;;;;;5.10;2.15;;;18.20;91.90;;;18.61;56.81;100702.28;5163905;28;20145;-70
2022/05/16 05:34:56;;;;;;;6.50;2.40;;;18.30;92.00;;;18.59;56.99;100699.66;5164003;28;20052;-71
2022/05/16 05:37:28;;;;;;;7.53;2.42;;;18.30;92.10;;;18.58;57.09;100713.72;5163869;28;20054;-71
2022/05/16 05:40:01;;;;;;;3.45;2.10;;;18.30;92.20;;;18.61;57.27;100713.72;5164062;28;20052;-70
2022/05/16 05:42:35;;;;;;;3.30;1.92;;;18.30;92.20;;;18.64;57.26;100719.00;5163937;28;20109;-71
2022/05/16 05:45:10;;;;;;;3.83;1.70;;;18.30;92.30;;;18.68;57.50;100726.06;5163765;28;20061;-71
2022/05/16 05:47:42;;;;;;;3.20;1.80;;;18.30;92.40;;;18.69;57.37;100726.94;5164202;28;20053;-71
2022/05/16 05:50:15;;;;;;;3.90;2.40;;;18.30;92.40;;;18.72;57.29;100742.81;5164213;28;20598;-71
2022/05/16 05:52:47;;;;;;;3.30;2.13;;;18.30;92.20;;;18.75;57.25;100748.09;5164149;28;20062;-71
2022/05/16 05:55:19;;;;;;;3.83;1.80;;;18.40;92.20;;;18.78;56.98;100757.75;5164126;28;20050;-70
2022/05/16 05:57:52;;;;;;;2.92;1.88;;;18.40;92.10;;;18.79;56.90;100762.19;5164253;28;20050;-70
2022/05/16 06:00:26;;;;;;;4.93;1.90;;;18.40;92.00;;;18.82;56.61;100775.38;5163738;28;20051;-70
2022/05/16 06:03:00;;;;;;;4.20;2.38;;;18.40;91.80;;;18.81;56.43;100777.13;5163814;28;20050;-70
2022/05/16 06:05:32;;;;;;;4.22;2.28;;;18.40;91.80;;;18.81;56.57;100784.19;5163906;28;20144;-71
2022/05/16 06:08:05;;;;;;;5.70;1.98;;;18.40;91.80;;;18.80;56.60;100783.31;5163695;28;20052;-69
2022/05/16 06:10:37;;;;;;;6.72;2.38;;;18.40;91.80;;;18.78;56.98;100790.34;5163921;28;20057;-70
2022/05/16 06:13:09;;;;;;;5.22;2.15;;;18.40;91.90;;;18.76;57.28;100785.94;5163511;28;20487;-70
2022/05/16 06:15:43;;;;;;;3.55;1.95;;;18.40;92.00;;;18.76;57.99;100796.50;5163990;28;20550;-69
2022/05/16 06:18:15;;;;;;;4.30;2.50;;;18.40;92.50;;;18.74;58.77;100795.63;5163555;28;20406;-70
2022/05/16 06:20:47;;;;;;;6.03;2.58;;;18.40;92.90;;;18.69;58.99;100800.88;5163535;28;20047;-70
2022/05/16 06:23:19;;;;;;;4.55;2.22;;;18.40;93.10;;;18.65;59.77;100804.38;5163274;28;20061;-70
2022/05/16 06:25:52;;;;;;;5.22;2.30;;;18.30;93.50;;;18.62;61.02;100794.69;5163477;28;20046;-70
2022/05/16 06:28:27;;;;;;;7.38;2.92;;;18.30;94.20;;;18.50;61.68;100796.41;5163752;28;20141;-70
2022/05/16 06:31:00;;;;;;;6.03;2.47;;;18.20;94.80;;;18.41;62.68;100799.91;5163389;28;20061;-71
2022/05/16 06:33:32;;;;;;;6.15;2.35;;;18.20;95.40;;;18.34;64.24;100788.47;5163249;28;20046;-71
2022/05/16 06:36:06;;;;;;;6.50;2.70;;;18.10;96.10;;;18.29;65.43;100794.59;5165272;28;20046;-70
2022/05/16 06:38:38;;;;;;;6.45;2.83;;;18.10;97.00;;;18.21;67.20;100791.94;5167300;28;20166;-71
2022/05/16 06:41:10;;;;;;;6.65;3.00;;;18.00;98.20;;;18.10;68.54;100794.53;5167313;28;20050;-70
2022/05/16 06:43:42;;;;;;;4.32;2.63;;;17.90;99.10;;;18.00;69.39;100798.00;5166936;28;20050;-71
2022/05/16 06:46:15;;;;;;;5.72;2.75;;;17.80;99.60;;;17.90;70.34;100804.97;5166365;28;20050;-71
2022/05/16 06:48:47;;;;;;;5.72;3.25;;;17.70;99.90;;;17.86;71.70;100804.94;5152417;28;20053;-70
2022/05/16 06:51:19;;;;;;;7.35;3.15;;;17.70;99.90;;;17.85;73.06;100804.06;5146118;28;20255;-70
2022/05/16 06:53:51;;;;;;;8.00;3.30;;;17.60;99.90;;;17.84;74.25;100811.97;5145349;28;20062;-70
2022/05/16 06:56:23;;;;;;;8.50;3.40;;;17.60;99.90;;;17.77;75.70;100805.78;5147026;28;20506;-69
2022/05/16 06:58:55;;;;;;;5.68;3.00;;;17.60;99.90;;;17.74;76.83;100805.78;5146531;28;20055;-69
2022/05/16 07:01:29;;;;;;;6.35;2.60;;;17.50;99.90;;;17.78;77.85;100809.31;5154675;28;20047;-70
2022/05/16 07:04:01;;;;;;;5.70;3.45;;;17.50;99.90;;;17.82;78.90;100816.38;5158954;28;20411;-68
2022/05/16 07:06:33;;;;;;;6.60;2.78;;;17.50;99.90;;;17.87;79.21;100814.66;5154407;28;20057;-69
2022/05/16 07:09:05;;;;;;;6.03;3.25;;;17.60;99.90;;;17.87;79.28;100815.53;5162693;28;20053;-69
2022/05/16 07:11:37;;;;;;;5.88;2.97;;;17.60;99.90;;;17.87;79.60;100812.91;5151297;28;20058;-72
2022/05/16 07:14:09;;;;;;;5.97;3.53;;;17.60;99.90;;;17.86;79.29;100820.78;5146231;28;20042;-72
2022/05/16 07:16:42;;;;;;;7.00;2.80;;;17.60;99.90;;;17.88;79.44;100817.28;5145975;28;20053;-70
2022/05/16 07:19:15;;;;;;;5.10;2.63;;;17.60;99.90;;;17.96;79.29;100817.31;5146960;28;20073;-70
2022/05/16 07:21:47;;;;;;;4.22;3.08;;;17.60;99.90;;;18.01;79.24;100809.44;5147254;28;20050;-71
2022/05/16 07:24:19;;;;;;;5.78;3.28;;;17.70;99.90;;;18.02;78.54;100827.03;5146835;28;20046;-71
2022/05/16 07:29:40;;;;;;;5.97;2.92;;;17.70;99.90;;;18.06;79.10;100812.94;5146483;28;20137;-72
2022/05/16 07:32:13;;;;;;;6.35;3.03;;;17.80;99.90;;;18.09;79.31;100813.88;5146563;28;20050;-72
2022/05/16 07:34:46;;;;;;;7.82;3.45;;;17.80;99.90;;;18.06;78.31;100803.31;5146583;28;20054;-73
2022/05/16 07:37:18;;;;;;;9.07;3.67;;;17.80;99.90;;;18.06;78.69;100808.59;5146209;28;20496;-62
2022/05/16 07:39:50;;;;;;;5.57;3.13;;;17.80;99.90;;;18.18;76.50;100813.00;5146305;28;20058;-60
2022/05/16 07:42:22;;;;;;;6.20;2.63;;;18.00;99.90;;;18.38;75.48;100831.56;5165187;28;20069;-60
2022/05/16 07:44:54;;;;;;;6.10;3.25;;;18.10;99.90;;;18.59;74.46;100831.66;5163190;28;20050;-60
2022/05/16 07:47:27;;;;;;;6.93;3.05;;;18.40;99.90;;;18.81;73.80;100843.16;5155872;28;20057;-60
2022/05/16 07:50:00;;;;;;;4.43;2.65;;;18.50;99.90;;;19.05;72.89;100846.72;5163431;28;20073;-60
2022/05/16 07:52:33;;;;;;;5.97;3.42;;;18.80;99.90;;;19.22;71.57;100845.84;5162340;28;20046;-61
2022/05/16 07:55:07;;;;;;;5.55;3.00;;;18.90;99.90;;;19.30;71.46;100847.59;5164252;28;20046;-60
2022/05/16 07:57:39;;;;;;;;;;;19.00;99.90;;;19.41;71.30;100853.75;5156333;28;20046;-58
2022/05/16 08:00:13;;;;;;;6.55;2.58;;;19.20;99.90;;;19.54;70.95;100850.22;5163122;28;19976;-59
2022/05/16 08:02:47;;;;;;;5.07;2.50;;;19.30;99.90;;;19.67;70.38;100844.06;5164305;28;20054;-59
2022/05/16 08:05:20;;;;;;;5.93;2.97;;;19.40;99.90;;;19.76;69.71;100844.06;5164894;28;20058;-60
2022/05/16 08:10:42;;;;;;;4.22;2.72;;;19.60;99.90;;;19.84;69.81;100837.88;5164950;28;20051;-65
2022/05/16 08:13:14;;;;;;;5.82;2.97;;;19.60;99.90;;;19.86;70.41;100829.06;5165343;28;20333;-69
2022/05/16 08:15:46;;;;;;;4.13;2.47;;;19.60;99.90;;;19.93;70.76;100840.50;5165628;28;20070;-70
2022/05/16 08:18:20;;;;;;;6.35;2.65;;;19.60;99.90;;;19.93;70.69;100851.06;5165653;28;20052;-70
2022/05/16 08:20:53;;;;;;;4.03;2.78;;;19.60;99.90;;;19.89;71.01;100857.28;5165429;28;20048;-71
2022/05/16 08:23:29;;;;;;;7.03;2.97;;;19.60;99.90;;;19.83;71.97;100844.94;5164840;28;20747;-70
2022/05/16 08:26:04;;;;;;;6.72;3.13;;;19.50;99.90;;;19.84;72.13;100864.34;5165889;28;20100;-61
2022/05/16 08:28:38;;;;;;;5.38;2.20;;;19.50;99.90;;;19.97;71.74;100871.34;5165112;28;20054;-63
2022/05/16 08:31:11;;;;;;;4.55;2.30;;;19.60;99.90;;;20.26;71.73;100888.03;5165434;28;20050;-63
2022/05/16 08:33:44;;;;;;;5.13;2.90;;;19.70;99.90;;;20.48;71.36;100877.41;5165281;28;20133;-63
2022/05/16 08:41:57;;;;;;;5.03;2.75;;;20.90;99.90;;;23.34;63.73;100893.97;5163838;28;20118;-63
2022/05/16 08:44:44;;;;;;;6.22;2.55;;;21.70;99.90;;;24.86;59.90;100905.34;5164821;28;20081;-63
2022/05/16 08:47:34;;;;;;;4.13;2.45;;;22.60;99.90;;;26.00;55.03;100900.78;5165154;28;20374;-64
2022/05/16 08:50:14;;;;;;;3.60;2.50;;;23.60;97.60;;;25.83;53.00;100901.25;5165089;28;20042;-64
2022/05/16 08:52:53;;;;;;;4.50;2.50;;;23.90;94.70;;;25.58;53.94;100907.19;5165117;28;20050;-63
2022/05/16 08:55:33;;;;;;;4.75;2.78;;;23.90;94.40;;;25.52;53.87;100904.69;5163512;28;20054;-66
2022/05/16 09:00:52;;;;;;;3.42;1.88;;;24.30;93.60;;;27.47;48.54;100894.59;5625558;23;19922;-61
2022/05/16 09:03:28;;;;;;;4.38;2.38;;;25.00;91.70;;;29.18;45.26;100894.56;5148916;28;20177;-65
2022/05/16 09:06:12;;;;;;;3.83;1.98;;;26.10;90.20;;;30.67;40.73;100890.75;5165127;28;20061;-65
2022/05/16 09:08:50;;;;;;;3.65;2.08;;;27.20;83.10;;;31.83;38.45;100890.47;5164438;28;20046;-65
2022/05/16 09:14:07;;;;;;;5.32;2.20;;;28.90;72.40;;;32.30;34.10;100878.97;5169909;28;20057;-61
2022/05/16 09:16:45;;;;;;;4.93;2.00;;;29.10;65.80;;;32.51;34.52;100883.22;5144554;28;20055;-65
2022/05/16 09:19:37;;;;;;;5.20;1.80;;;29.40;66.00;;;32.40;34.06;100877.53;5144098;28;20133;-62
2022/05/16 09:22:19;;;;;;;3.00;1.52;;;29.60;64.20;;;32.04;34.32;100883.94;5144173;28;20051;-63
2022/05/16 09:24:58;;;;;;;2.97;1.90;;;29.60;62.90;;;31.77;33.92;100879.97;5144618;28;20077;-61
2022/05/16 09:30:26;;;;;;;4.60;1.77;;;29.20;60.30;;;30.32;36.40;100873.56;5154649;28;20054;-60
2022/05/16 09:33:04;;;;;;;4.25;1.90;;;28.90;62.10;;;29.85;37.38;100879.22;5164071;28;20427;-61
2022/05/16 09:35:47;;;;;;;3.78;1.95;;;28.60;62.80;;;29.42;37.49;100873.00;5164116;28;20078;-65
2022/05/16 09:38:22;;;;;;;3.58;2.17;;;28.40;62.60;;;28.99;38.51;100872.06;5163922;28;20567;-61
2022/05/16 09:41:16;;;;;;;2.55;2.00;;;28.00;63.10;;;28.91;39.84;100874.16;5164316;28;20083;-61
2022/05/16 09:44:03;;;;;;;4.28;1.88;;;27.90;64.90;;;28.84;39.25;100873.53;5164592;28;20050;-60
2022/05/16 09:46:39;;;;;;;3.13;1.58;;;27.80;64.40;;;28.92;39.69;100874.13;5164585;28;20054;-61
2022/05/16 09:49:16;;;;;;;2.80;1.67;;;27.80;64.90;;;29.05;40.11;100868.28;5161330;28;20187;-61
2022/05/16 09:51:53;;;;;;;3.35;1.75;;;27.90;65.70;;;29.10;39.94;100868.97;5163623;28;20451;-60
2022/05/16 09:54:31;;;;;;;3.13;1.70;;;27.90;65.70;;;29.07;39.60;100867.25;5164080;28;20513;-61
2022/05/16 09:57:18;;;;;;;2.85;1.80;;;27.90;65.20;;;29.09;39.57;100867.22;5163849;28;20100;-59
2022/05/16 09:59:52;;;;;;;;;;;27.90;65.00;;;29.02;39.18;100868.41;5164000;28;20057;-59
2022/05/16 10:02:28;;;;;;;3.35;1.63;;;27.90;64.20;;;29.07;39.42;100863.72;5164082;28;19928;-60
2022/05/16 10:05:03;;;;;;;3.08;1.50;;;27.90;64.70;;;29.11;39.12;100859.97;5164265;28;20061;-61
2022/05/16 10:07:45;;;;;;;5.97;2.33;;;28.00;64.20;;;29.22;39.19;100860.41;5163782;28;20388;-61
2022/05/16 10:10:23;;;;;;;4.95;2.13;;;28.10;64.10;;;29.23;38.53;100858.59;5163932;28;20047;-61
2022/05/16 10:12:57;;;;;;;3.47;1.83;;;28.10;63.70;;;29.17;38.89;100857.03;5167429;28;20046;-61
2022/05/16 10:15:31;;;;;;;2.47;1.85;;;28.10;64.00;;;29.13;37.70;100863.47;5167586;28;20475;-58
2022/05/16 10:18:10;;;;;;;3.88;1.73;;;28.10;62.20;;;29.20;38.29;100860.47;5167568;28;20050;-61
2022/05/16 10:20:47;;;;;;;2.70;1.40;;;28.10;63.10;;;29.36;38.29;100860.72;5166679;28;20042;-61
2022/05/16 10:23:26;;;;;;;2.35;1.48;;;28.20;63.40;;;29.51;37.76;100869.03;5166769;28;20411;-60
2022/05/16 10:26:05;;;;;;;2.78;1.58;;;28.30;62.80;;;29.47;36.71;100862.91;5167456;28;20104;-61
2022/05/16 10:28:41;;;;;;;3.08;1.60;;;28.30;61.10;;;29.49;36.84;100871.81;5166960;28;20129;-60
2022/05/16 10:34:12;;;;;;;2.28;1.33;;;28.30;60.80;;;29.58;36.78;100870.56;5167313;28;20069;-59
2022/05/16 10:36:49;;;;;;;2.05;1.40;;;28.40;61.00;;;29.72;37.77;100860.09;5167421;28;20051;-59
2022/05/16 10:39:26;;;;;;;4.15;1.70;;;28.50;62.20;;;29.84;37.39;100858.69;5166933;28;20050;-56
2022/05/16 10:42:07;;;;;;;3.50;1.50;;;28.60;62.00;;;29.83;36.79;100863.19;5163985;28;20393;-59
2022/05/16 10:44:47;;;;;;;1.85;1.30;;;28.60;61.10;;;29.80;36.75;100859.75;5166428;28;20056;-63
2022/05/16 10:47:27;;;;;;;2.33;1.33;;;28.70;61.20;;;29.78;36.44;100856.25;5166371;28;20058;-59
2022/05/16 10:50:06;;;;;;;2.08;1.17;;;28.70;60.60;;;29.76;36.70;100856.34;5181312;28;20060;-57
2022/05/16 10:52:42;;;;;;;3.15;1.70;;;28.60;60.80;;;29.60;36.06;100855.25;5160496;28;20462;-59
2022/05/16 10:55:15;;;;;;;1.60;1.20;;;28.50;59.80;;;29.37;36.64;100859.75;5166223;28;20093;-56
2022/05/16 10:58:19;;;;;;;2.17;1.10;;;28.30;59.80;;;29.06;37.42;100857.47;5166311;28;20072;-57
2022/05/16 11:00:59;;;;;;;1.65;1.40;;;28.10;60.40;;;28.80;37.80;100850.44;5165755;28;20389;-58
2022/05/16 11:04:15;;;;;;;1.88;1.00;;;27.90;61.10;;;28.50;38.85;100844.50;5166909;28;20530;-57
2022/05/16 11:07:10;;;;;;;4.53;1.38;;;27.60;61.90;;;28.32;39.38;100851.44;5129668;28;20057;-59
2022/05/16 11:09:51;;;;;;;2.22;1.23;;;27.50;62.70;;;28.14;38.77;100849.41;5166566;28;20050;-59
2022/05/16 11:12:30;;;;;;;1.83;1.20;;;27.30;62.00;;;28.01;38.88;100856.13;5166173;28;20054;-58
2022/05/16 11:15:23;;;;;;;1.50;1.08;;;27.10;62.10;;;27.94;39.11;100852.81;5166544;28;20061;-59
2022/05/16 11:18:02;;;;;;;1.42;1.10;;;27.10;62.30;;;27.88;39.45;100854.84;5166229;28;20050;-59
2022/05/16 11:20:42;;;;;;;1.90;1.20;;;27.00;62.70;;;27.83;39.85;100865.69;5166182;28;20054;-58